sensor_id;sensor_type;location;lat;lon;timestamp;P1;durP1;ratioP1;P2;durP2;ratioP2
56537;SDS011;42435;53.292;6.000;2023-04-01T00:01:00;12.07;;;7.82;;
56537;SDS011;42435;53.292;6.000;2023-04-01T00:03:27;11.48;;;7.13;;
56537;SDS011;42435;53.292;6.000;2023-04-01T00:05:54;12.02;;;7.82;;
56537;SDS011;42435;53.292;6.000;2023-04-01T00:08:20;13.00;;;7.70;;
56537;SDS011;42435;53.292;6.000;2023-04-01T00:10:46;12.93;;;8.30;;
56537;SDS011;42435;53.292;6.000;2023-04-01T00:13:12;12.48;;;7.32;;
56537;SDS011;42435;53.292;6.000;2023-04-01T00:15:38;11.32;;;7.68;;
56537;SDS011;42435;53.292;6.000;2023-04-01T00:18:03;20.67;;;9.30;;
56537;SDS011;42435;53.292;6.000;2023-04-01T00:20:32;13.70;;;8.05;;
56537;SDS011;42435;53.292;6.000;2023-04-01T00:22:58;14.23;;;8.65;;
56537;SDS011;42435;53.292;6.000;2023-04-01T00:25:23;12.52;;;7.57;;
56537;SDS011;42435;53.292;6.000;2023-04-01T00:27:52;12.48;;;7.80;;
56537;SDS011;42435;53.292;6.000;2023-04-01T00:30:18;12.18;;;7.60;;
56537;SDS011;42435;53.292;6.000;2023-04-01T00:32:43;14.40;;;8.82;;
56537;SDS011;42435;53.292;6.000;2023-04-01T00:35:12;12.48;;;8.15;;
56537;SDS011;42435;53.292;6.000;2023-04-01T00:37:37;12.50;;;7.65;;
56537;SDS011;42435;53.292;6.000;2023-04-01T00:40:05;11.75;;;7.90;;
56537;SDS011;42435;53.292;6.000;2023-04-01T00:42:33;14.68;;;9.18;;
56537;SDS011;42435;53.292;6.000;2023-04-01T00:44:58;13.07;;;8.13;;
56537;SDS011;42435;53.292;6.000;2023-04-01T00:47:51;14.52;;;8.13;;
56537;SDS011;42435;53.292;6.000;2023-04-01T00:50:16;14.90;;;9.18;;
56537;SDS011;42435;53.292;6.000;2023-04-01T00:52:42;12.13;;;8.38;;
56537;SDS011;42435;53.292;6.000;2023-04-01T00:55:11;13.43;;;8.88;;
56537;SDS011;42435;53.292;6.000;2023-04-01T00:57:39;14.05;;;8.52;;
56537;SDS011;42435;53.292;6.000;2023-04-01T01:00:09;17.10;;;9.18;;
56537;SDS011;42435;53.292;6.000;2023-04-01T01:02:38;12.90;;;8.50;;
56537;SDS011;42435;53.292;6.000;2023-04-01T01:05:07;13.40;;;9.05;;
56537;SDS011;42435;53.292;6.000;2023-04-01T01:07:47;16.15;;;9.10;;
56537;SDS011;42435;53.292;6.000;2023-04-01T01:10:34;15.52;;;9.13;;
56537;SDS011;42435;53.292;6.000;2023-04-01T01:13:04;16.90;;;9.50;;
56537;SDS011;42435;53.292;6.000;2023-04-01T01:15:45;14.70;;;8.85;;
56537;SDS011;42435;53.292;6.000;2023-04-01T01:26:29;17.90;;;10.00;;
56537;SDS011;42435;53.292;6.000;2023-04-01T01:32:19;16.67;;;9.80;;
56537;SDS011;42435;53.292;6.000;2023-04-01T01:35:07;16.55;;;10.23;;
56537;SDS011;42435;53.292;6.000;2023-04-01T01:37:41;15.55;;;9.02;;
56537;SDS011;42435;53.292;6.000;2023-04-01T01:40:10;15.93;;;9.90;;
56537;SDS011;42435;53.292;6.000;2023-04-01T01:42:39;15.68;;;10.05;;
56537;SDS011;42435;53.292;6.000;2023-04-01T01:45:10;16.50;;;10.48;;
56537;SDS011;42435;53.292;6.000;2023-04-01T01:47:43;16.98;;;9.80;;
56537;SDS011;42435;53.292;6.000;2023-04-01T01:50:10;15.93;;;9.80;;
56537;SDS011;42435;53.292;6.000;2023-04-01T01:52:40;19.30;;;10.88;;
56537;SDS011;42435;53.292;6.000;2023-04-01T01:55:22;18.17;;;10.25;;
56537;SDS011;42435;53.292;6.000;2023-04-01T01:57:51;18.33;;;10.48;;
56537;SDS011;42435;53.292;6.000;2023-04-01T02:00:17;17.95;;;10.40;;
56537;SDS011;42435;53.292;6.000;2023-04-01T02:02:45;18.15;;;10.38;;
56537;SDS011;42435;53.292;6.000;2023-04-01T02:05:17;16.48;;;10.05;;
56537;SDS011;42435;53.292;6.000;2023-04-01T02:10:22;16.77;;;10.25;;
56537;SDS011;42435;53.292;6.000;2023-04-01T02:12:51;18.08;;;10.68;;
56537;SDS011;42435;53.292;6.000;2023-04-01T02:15:22;15.73;;;10.30;;
56537;SDS011;42435;53.292;6.000;2023-04-01T02:17:51;21.45;;;11.38;;
56537;SDS011;42435;53.292;6.000;2023-04-01T02:20:20;20.55;;;10.60;;
56537;SDS011;42435;53.292;6.000;2023-04-01T02:22:49;17.88;;;10.55;;
56537;SDS011;42435;53.292;6.000;2023-04-01T02:25:18;17.30;;;10.43;;
56537;SDS011;42435;53.292;6.000;2023-04-01T02:27:53;18.02;;;10.48;;
56537;SDS011;42435;53.292;6.000;2023-04-01T02:30:21;17.63;;;10.73;;
56537;SDS011;42435;53.292;6.000;2023-04-01T02:32:48;15.63;;;9.80;;
56537;SDS011;42435;53.292;6.000;2023-04-01T02:35:18;19.02;;;10.25;;
56537;SDS011;42435;53.292;6.000;2023-04-01T02:37:48;16.92;;;10.35;;
56537;SDS011;42435;53.292;6.000;2023-04-01T02:40:17;17.63;;;10.23;;
56537;SDS011;42435;53.292;6.000;2023-04-01T02:42:48;16.77;;;9.85;;
56537;SDS011;42435;53.292;6.000;2023-04-01T02:45:16;17.58;;;9.60;;
56537;SDS011;42435;53.292;6.000;2023-04-01T02:47:41;18.55;;;10.50;;
56537;SDS011;42435;53.292;6.000;2023-04-01T02:50:07;15.57;;;9.40;;
56537;SDS011;42435;53.292;6.000;2023-04-01T02:52:33;15.10;;;9.43;;
56537;SDS011;42435;53.292;6.000;2023-04-01T02:54:59;14.65;;;9.13;;
56537;SDS011;42435;53.292;6.000;2023-04-01T02:57:28;17.65;;;10.73;;
56537;SDS011;42435;53.292;6.000;2023-04-01T02:59:56;16.23;;;10.20;;
56537;SDS011;42435;53.292;6.000;2023-04-01T03:02:22;15.27;;;9.07;;
56537;SDS011;42435;53.292;6.000;2023-04-01T03:04:47;16.65;;;9.93;;
56537;SDS011;42435;53.292;6.000;2023-04-01T03:07:13;15.95;;;9.07;;
56537;SDS011;42435;53.292;6.000;2023-04-01T03:09:38;15.52;;;8.60;;
56537;SDS011;42435;53.292;6.000;2023-04-01T03:12:05;14.70;;;8.93;;
56537;SDS011;42435;53.292;6.000;2023-04-01T03:14:31;13.57;;;8.38;;
56537;SDS011;42435;53.292;6.000;2023-04-01T03:17:01;16.75;;;8.68;;
56537;SDS011;42435;53.292;6.000;2023-04-01T03:19:27;13.45;;;8.18;;
56537;SDS011;42435;53.292;6.000;2023-04-01T03:21:53;15.65;;;8.80;;
56537;SDS011;42435;53.292;6.000;2023-04-01T03:24:19;15.10;;;8.57;;
56537;SDS011;42435;53.292;6.000;2023-04-01T03:26:45;14.25;;;8.43;;
56537;SDS011;42435;53.292;6.000;2023-04-01T03:29:11;14.98;;;8.00;;
56537;SDS011;42435;53.292;6.000;2023-04-01T03:31:36;18.88;;;9.23;;
56537;SDS011;42435;53.292;6.000;2023-04-01T03:34:02;19.08;;;10.10;;
56537;SDS011;42435;53.292;6.000;2023-04-01T03:36:27;20.02;;;10.48;;
56537;SDS011;42435;53.292;6.000;2023-04-01T03:38:53;21.35;;;11.48;;
56537;SDS011;42435;53.292;6.000;2023-04-01T03:41:21;18.48;;;10.18;;
56537;SDS011;42435;53.292;6.000;2023-04-01T03:43:47;23.75;;;12.02;;
56537;SDS011;42435;53.292;6.000;2023-04-01T03:46:17;22.60;;;11.85;;
56537;SDS011;42435;53.292;6.000;2023-04-01T03:48:43;25.05;;;12.77;;
56537;SDS011;42435;53.292;6.000;2023-04-01T03:51:08;22.55;;;12.13;;
56537;SDS011;42435;53.292;6.000;2023-04-01T03:53:35;25.90;;;14.05;;
56537;SDS011;42435;53.292;6.000;2023-04-01T03:56:05;25.08;;;12.60;;
56537;SDS011;42435;53.292;6.000;2023-04-01T03:58:32;22.40;;;12.75;;
56537;SDS011;42435;53.292;6.000;2023-04-01T04:01:00;26.92;;;13.35;;
56537;SDS011;42435;53.292;6.000;2023-04-01T04:03:29;23.40;;;12.88;;
56537;SDS011;42435;53.292;6.000;2023-04-01T04:05:54;24.83;;;13.35;;
56537;SDS011;42435;53.292;6.000;2023-04-01T04:08:21;25.17;;;12.75;;
56537;SDS011;42435;53.292;6.000;2023-04-01T04:10:47;26.80;;;13.43;;
56537;SDS011;42435;53.292;6.000;2023-04-01T04:13:13;25.38;;;13.82;;
56537;SDS011;42435;53.292;6.000;2023-04-01T04:15:39;27.75;;;13.88;;
56537;SDS011;42435;53.292;6.000;2023-04-01T04:18:04;23.70;;;13.07;;
56537;SDS011;42435;53.292;6.000;2023-04-01T04:20:33;25.10;;;13.20;;
56537;SDS011;42435;53.292;6.000;2023-04-01T04:23:00;27.58;;;14.15;;
56537;SDS011;42435;53.292;6.000;2023-04-01T04:25:25;26.23;;;13.20;;
56537;SDS011;42435;53.292;6.000;2023-04-01T04:27:51;27.13;;;14.60;;
56537;SDS011;42435;53.292;6.000;2023-04-01T04:30:16;27.02;;;13.63;;
56537;SDS011;42435;53.292;6.000;2023-04-01T04:32:42;27.83;;;14.77;;
56537;SDS011;42435;53.292;6.000;2023-04-01T04:35:10;28.55;;;14.60;;
56537;SDS011;42435;53.292;6.000;2023-04-01T04:37:36;26.52;;;14.57;;
56537;SDS011;42435;53.292;6.000;2023-04-01T04:40:02;28.27;;;14.77;;
56537;SDS011;42435;53.292;6.000;2023-04-01T04:42:27;28.10;;;14.65;;
56537;SDS011;42435;53.292;6.000;2023-04-01T04:44:55;33.22;;;16.52;;
56537;SDS011;42435;53.292;6.000;2023-04-01T04:47:21;28.30;;;15.18;;
56537;SDS011;42435;53.292;6.000;2023-04-01T04:49:47;28.20;;;15.05;;
56537;SDS011;42435;53.292;6.000;2023-04-01T04:52:12;29.35;;;15.35;;
56537;SDS011;42435;53.292;6.000;2023-04-01T04:54:38;28.30;;;14.02;;
56537;SDS011;42435;53.292;6.000;2023-04-01T04:57:03;29.67;;;15.00;;
56537;SDS011;42435;53.292;6.000;2023-04-01T04:59:30;28.90;;;15.02;;
56537;SDS011;42435;53.292;6.000;2023-04-01T05:02:02;24.73;;;14.40;;
56537;SDS011;42435;53.292;6.000;2023-04-01T05:04:27;29.85;;;14.23;;
56537;SDS011;42435;53.292;6.000;2023-04-01T05:06:53;32.55;;;15.57;;
56537;SDS011;42435;53.292;6.000;2023-04-01T05:09:18;27.17;;;14.43;;
56537;SDS011;42435;53.292;6.000;2023-04-01T05:11:44;30.30;;;16.42;;
56537;SDS011;42435;53.292;6.000;2023-04-01T05:14:14;29.15;;;16.27;;
56537;SDS011;42435;53.292;6.000;2023-04-01T05:16:41;28.15;;;16.50;;
56537;SDS011;42435;53.292;6.000;2023-04-01T05:19:06;32.13;;;16.52;;
56537;SDS011;42435;53.292;6.000;2023-04-01T05:21:32;37.20;;;18.70;;
56537;SDS011;42435;53.292;6.000;2023-04-01T05:23:58;31.17;;;15.82;;
56537;SDS011;42435;53.292;6.000;2023-04-01T05:26:23;30.55;;;16.48;;
56537;SDS011;42435;53.292;6.000;2023-04-01T05:28:49;27.95;;;14.88;;
56537;SDS011;42435;53.292;6.000;2023-04-01T05:31:14;32.47;;;16.50;;
56537;SDS011;42435;53.292;6.000;2023-04-01T05:33:40;36.05;;;17.13;;
56537;SDS011;42435;53.292;6.000;2023-04-01T05:36:13;30.90;;;16.48;;
56537;SDS011;42435;53.292;6.000;2023-04-01T05:38:42;37.67;;;18.08;;
56537;SDS011;42435;53.292;6.000;2023-04-01T05:41:10;36.15;;;17.20;;
56537;SDS011;42435;53.292;6.000;2023-04-01T05:43:36;38.10;;;17.77;;
56537;SDS011;42435;53.292;6.000;2023-04-01T05:46:02;34.80;;;18.13;;
56537;SDS011;42435;53.292;6.000;2023-04-01T05:48:28;32.92;;;15.77;;
56537;SDS011;42435;53.292;6.000;2023-04-01T05:50:58;32.20;;;15.68;;
56537;SDS011;42435;53.292;6.000;2023-04-01T05:53:26;31.80;;;15.45;;
56537;SDS011;42435;53.292;6.000;2023-04-01T05:55:52;30.17;;;14.82;;
56537;SDS011;42435;53.292;6.000;2023-04-01T05:58:20;26.90;;;13.60;;
56537;SDS011;42435;53.292;6.000;2023-04-01T06:00:49;26.38;;;13.23;;
56537;SDS011;42435;53.292;6.000;2023-04-01T06:03:14;23.30;;;12.23;;
56537;SDS011;42435;53.292;6.000;2023-04-01T06:05:43;22.95;;;11.73;;
56537;SDS011;42435;53.292;6.000;2023-04-01T06:08:39;22.65;;;10.80;;
56537;SDS011;42435;53.292;6.000;2023-04-01T06:11:17;20.48;;;10.52;;
56537;SDS011;42435;53.292;6.000;2023-04-01T06:16:48;20.58;;;10.85;;
56537;SDS011;42435;53.292;6.000;2023-04-01T06:22:48;26.55;;;12.90;;
56537;SDS011;42435;53.292;6.000;2023-04-01T06:36:28;33.38;;;17.25;;
56537;SDS011;42435;53.292;6.000;2023-04-01T06:42:30;30.90;;;15.68;;
56537;SDS011;42435;53.292;6.000;2023-04-01T06:53:21;36.75;;;17.40;;
56537;SDS011;42435;53.292;6.000;2023-04-01T06:56:06;34.35;;;16.83;;
56537;SDS011;42435;53.292;6.000;2023-04-01T06:58:44;38.85;;;18.30;;
56537;SDS011;42435;53.292;6.000;2023-04-01T07:01:29;28.40;;;15.40;;
56537;SDS011;42435;53.292;6.000;2023-04-01T07:04:16;33.28;;;16.48;;
56537;SDS011;42435;53.292;6.000;2023-04-01T07:09:43;35.28;;;17.23;;
56537;SDS011;42435;53.292;6.000;2023-04-01T07:12:21;35.83;;;16.33;;
56537;SDS011;42435;53.292;6.000;2023-04-01T07:15:12;38.65;;;17.73;;
56537;SDS011;42435;53.292;6.000;2023-04-01T07:18:17;40.10;;;17.48;;
56537;SDS011;42435;53.292;6.000;2023-04-01T07:20:48;43.78;;;17.90;;
56537;SDS011;42435;53.292;6.000;2023-04-01T07:23:22;44.78;;;16.30;;
56537;SDS011;42435;53.292;6.000;2023-04-01T07:26:06;46.78;;;17.73;;
56537;SDS011;42435;53.292;6.000;2023-04-01T07:28:41;35.55;;;15.38;;
56537;SDS011;42435;53.292;6.000;2023-04-01T07:31:11;40.53;;;16.98;;
56537;SDS011;42435;53.292;6.000;2023-04-01T07:33:52;43.15;;;17.13;;
56537;SDS011;42435;53.292;6.000;2023-04-01T07:36:30;40.20;;;15.75;;
56537;SDS011;42435;53.292;6.000;2023-04-01T07:55:50;19.25;;;9.23;;
56537;SDS011;42435;53.292;6.000;2023-04-01T08:20:50;8.88;;;2.60;;
56537;SDS011;42435;53.292;6.000;2023-04-01T08:35:19;5.00;;;2.97;;
56537;SDS011;42435;53.292;6.000;2023-04-01T08:38:19;6.63;;;3.50;;
56537;SDS011;42435;53.292;6.000;2023-04-01T08:40:52;11.02;;;2.97;;
56537;SDS011;42435;53.292;6.000;2023-04-01T08:46:29;7.43;;;2.80;;
56537;SDS011;42435;53.292;6.000;2023-04-01T08:49:15;10.68;;;3.83;;
56537;SDS011;42435;53.292;6.000;2023-04-01T08:52:02;8.85;;;3.10;;
56537;SDS011;42435;53.292;6.000;2023-04-01T08:57:38;5.30;;;2.90;;
56537;SDS011;42435;53.292;6.000;2023-04-01T09:02:51;8.35;;;2.75;;
56537;SDS011;42435;53.292;6.000;2023-04-01T09:05:36;5.07;;;2.45;;
56537;SDS011;42435;53.292;6.000;2023-04-01T09:11:27;5.05;;;2.60;;
56537;SDS011;42435;53.292;6.000;2023-04-01T09:16:50;5.85;;;2.70;;
56537;SDS011;42435;53.292;6.000;2023-04-01T09:22:36;5.85;;;2.08;;
56537;SDS011;42435;53.292;6.000;2023-04-01T09:25:30;5.03;;;2.58;;
56537;SDS011;42435;53.292;6.000;2023-04-01T09:30:45;7.15;;;3.00;;
56537;SDS011;42435;53.292;6.000;2023-04-01T09:36:20;5.47;;;2.78;;
56537;SDS011;42435;53.292;6.000;2023-04-01T09:38:57;6.60;;;3.03;;
56537;SDS011;42435;53.292;6.000;2023-04-01T09:47:16;6.30;;;3.00;;
56537;SDS011;42435;53.292;6.000;2023-04-01T09:52:55;6.97;;;2.63;;
56537;SDS011;42435;53.292;6.000;2023-04-01T09:58:27;5.88;;;2.67;;
56537;SDS011;42435;53.292;6.000;2023-04-01T10:09:47;4.97;;;2.97;;
56537;SDS011;42435;53.292;6.000;2023-04-01T10:23:43;4.68;;;2.40;;
56537;SDS011;42435;53.292;6.000;2023-04-01T10:26:23;8.48;;;3.70;;
56537;SDS011;42435;53.292;6.000;2023-04-01T10:32:18;6.95;;;1.90;;
56537;SDS011;42435;53.292;6.000;2023-04-01T10:35:14;7.72;;;2.53;;
56537;SDS011;42435;53.292;6.000;2023-04-01T10:38:28;7.60;;;2.28;;
56537;SDS011;42435;53.292;6.000;2023-04-01T10:50:11;4.60;;;2.00;;
56537;SDS011;42435;53.292;6.000;2023-04-01T10:58:41;6.43;;;2.40;;
56537;SDS011;42435;53.292;6.000;2023-04-01T11:27:29;4.30;;;1.88;;
56537;SDS011;42435;53.292;6.000;2023-04-01T11:32:46;3.72;;;1.88;;
56537;SDS011;42435;53.292;6.000;2023-04-01T11:35:25;2.83;;;2.30;;
56537;SDS011;42435;53.292;6.000;2023-04-01T11:38:09;3.58;;;2.25;;
56537;SDS011;42435;53.292;6.000;2023-04-01T11:46:56;3.25;;;2.33;;
56537;SDS011;42435;53.292;6.000;2023-04-01T11:55:40;4.25;;;2.25;;
56537;SDS011;42435;53.292;6.000;2023-04-01T12:03:37;5.85;;;2.20;;
56537;SDS011;42435;53.292;6.000;2023-04-01T12:13:56;3.28;;;1.95;;
56537;SDS011;42435;53.292;6.000;2023-04-01T12:16:35;3.13;;;1.90;;
56537;SDS011;42435;53.292;6.000;2023-04-01T12:24:56;6.82;;;4.22;;
56537;SDS011;42435;53.292;6.000;2023-04-01T12:27:41;7.68;;;4.30;;
56537;SDS011;42435;53.292;6.000;2023-04-01T12:30:26;5.95;;;3.35;;
56537;SDS011;42435;53.292;6.000;2023-04-01T12:41:37;3.40;;;1.90;;
56537;SDS011;42435;53.292;6.000;2023-04-01T12:46:49;2.25;;;1.63;;
56537;SDS011;42435;53.292;6.000;2023-04-01T12:49:44;5.57;;;2.60;;
56537;SDS011;42435;53.292;6.000;2023-04-01T12:52:55;13.85;;;5.25;;
56537;SDS011;42435;53.292;6.000;2023-04-01T12:58:05;4.20;;;2.28;;
56537;SDS011;42435;53.292;6.000;2023-04-01T13:17:35;2.72;;;2.10;;
56537;SDS011;42435;53.292;6.000;2023-04-01T13:23:24;5.00;;;2.47;;
56537;SDS011;42435;53.292;6.000;2023-04-01T13:37:35;3.95;;;2.75;;
56537;SDS011;42435;53.292;6.000;2023-04-01T13:43:22;3.25;;;2.92;;
56537;SDS011;42435;53.292;6.000;2023-04-01T13:46:03;5.60;;;1.90;;
56537;SDS011;42435;53.292;6.000;2023-04-01T13:48:49;2.28;;;1.55;;
56537;SDS011;42435;53.292;6.000;2023-04-01T13:54:41;3.15;;;1.70;;
56537;SDS011;42435;53.292;6.000;2023-04-01T14:02:47;5.65;;;1.70;;
56537;SDS011;42435;53.292;6.000;2023-04-01T14:05:44;7.00;;;2.33;;
56537;SDS011;42435;53.292;6.000;2023-04-01T14:18:16;4.15;;;1.90;;
56537;SDS011;42435;53.292;6.000;2023-04-01T14:26:39;3.83;;;2.22;;
56537;SDS011;42435;53.292;6.000;2023-04-01T14:34:53;4.18;;;2.30;;
56537;SDS011;42435;53.292;6.000;2023-04-01T14:43:09;7.63;;;2.75;;
56537;SDS011;42435;53.292;6.000;2023-04-01T14:48:35;8.45;;;2.53;;
56537;SDS011;42435;53.292;6.000;2023-04-01T14:51:23;5.75;;;2.78;;
56537;SDS011;42435;53.292;6.000;2023-04-01T14:59:07;6.53;;;2.55;;
56537;SDS011;42435;53.292;6.000;2023-04-01T15:01:43;7.35;;;2.50;;
56537;SDS011;42435;53.292;6.000;2023-04-01T15:04:30;7.72;;;3.53;;
56537;SDS011;42435;53.292;6.000;2023-04-01T15:13:05;5.15;;;2.90;;
56537;SDS011;42435;53.292;6.000;2023-04-01T15:21:33;8.50;;;3.33;;
56537;SDS011;42435;53.292;6.000;2023-04-01T15:24:24;9.82;;;4.68;;
56537;SDS011;42435;53.292;6.000;2023-04-01T15:29:33;11.73;;;5.13;;
56537;SDS011;42435;53.292;6.000;2023-04-01T15:32:45;6.57;;;3.38;;
56537;SDS011;42435;53.292;6.000;2023-04-01T15:48:43;7.82;;;4.53;;
56537;SDS011;42435;53.292;6.000;2023-04-01T15:51:23;8.27;;;4.43;;
56537;SDS011;42435;53.292;6.000;2023-04-01T15:54:06;9.23;;;4.65;;
56537;SDS011;42435;53.292;6.000;2023-04-01T15:57:09;11.07;;;5.15;;
56537;SDS011;42435;53.292;6.000;2023-04-01T16:10:57;9.35;;;4.90;;
56537;SDS011;42435;53.292;6.000;2023-04-01T16:16:48;11.95;;;4.95;;
56537;SDS011;42435;53.292;6.000;2023-04-01T16:19:47;12.40;;;5.05;;
56537;SDS011;42435;53.292;6.000;2023-04-01T16:22:25;11.30;;;4.90;;
56537;SDS011;42435;53.292;6.000;2023-04-01T16:33:47;13.98;;;5.78;;
56537;SDS011;42435;53.292;6.000;2023-04-01T16:36:28;8.68;;;4.90;;
56537;SDS011;42435;53.292;6.000;2023-04-01T16:39:15;9.23;;;5.15;;
56537;SDS011;42435;53.292;6.000;2023-04-01T16:47:54;10.18;;;5.85;;
56537;SDS011;42435;53.292;6.000;2023-04-01T16:53:21;11.40;;;5.68;;
56537;SDS011;42435;53.292;6.000;2023-04-01T16:58:27;13.45;;;6.07;;
56537;SDS011;42435;53.292;6.000;2023-04-01T17:01:07;11.30;;;6.57;;
56537;SDS011;42435;53.292;6.000;2023-04-01T17:03:47;11.20;;;6.78;;
56537;SDS011;42435;53.292;6.000;2023-04-01T17:06:31;14.27;;;6.07;;
56537;SDS011;42435;53.292;6.000;2023-04-01T17:12:08;9.80;;;5.13;;
56537;SDS011;42435;53.292;6.000;2023-04-01T17:14:54;13.45;;;6.43;;
56537;SDS011;42435;53.292;6.000;2023-04-01T17:20:04;13.93;;;5.68;;
56537;SDS011;42435;53.292;6.000;2023-04-01T17:28:04;15.00;;;6.28;;
56537;SDS011;42435;53.292;6.000;2023-04-01T17:30:35;15.18;;;6.75;;
56537;SDS011;42435;53.292;6.000;2023-04-01T17:39:05;9.10;;;4.45;;
56537;SDS011;42435;53.292;6.000;2023-04-01T17:52:44;10.27;;;5.18;;
56537;SDS011;42435;53.292;6.000;2023-04-01T17:55:38;7.57;;;5.50;;
56537;SDS011;42435;53.292;6.000;2023-04-01T17:58:17;16.70;;;8.00;;
56537;SDS011;42435;53.292;6.000;2023-04-01T18:00:50;16.17;;;7.38;;
56537;SDS011;42435;53.292;6.000;2023-04-01T18:03:44;13.35;;;6.22;;
56537;SDS011;42435;53.292;6.000;2023-04-01T18:06:58;12.93;;;5.55;;
56537;SDS011;42435;53.292;6.000;2023-04-01T18:17:42;12.38;;;5.13;;
56537;SDS011;42435;53.292;6.000;2023-04-01T18:25:46;10.57;;;5.45;;
56537;SDS011;42435;53.292;6.000;2023-04-01T18:30:43;8.60;;;5.13;;
56537;SDS011;42435;53.292;6.000;2023-04-01T18:39:17;11.13;;;5.70;;
56537;SDS011;42435;53.292;6.000;2023-04-01T18:42:00;25.27;;;7.30;;
56537;SDS011;42435;53.292;6.000;2023-04-01T18:47:50;9.38;;;4.60;;
56537;SDS011;42435;53.292;6.000;2023-04-01T18:50:43;10.30;;;5.78;;
56537;SDS011;42435;53.292;6.000;2023-04-01T18:55:48;12.02;;;5.35;;
56537;SDS011;42435;53.292;6.000;2023-04-01T18:58:32;13.75;;;5.32;;
56537;SDS011;42435;53.292;6.000;2023-04-01T19:01:17;10.18;;;5.65;;
56537;SDS011;42435;53.292;6.000;2023-04-01T19:06:47;10.65;;;5.15;;
56537;SDS011;42435;53.292;6.000;2023-04-01T19:25:27;15.27;;;6.45;;
56537;SDS011;42435;53.292;6.000;2023-04-01T19:33:25;10.98;;;5.57;;
56537;SDS011;42435;53.292;6.000;2023-04-01T19:35:56;8.70;;;4.95;;
56537;SDS011;42435;53.292;6.000;2023-04-01T19:39:09;10.07;;;5.35;;
56537;SDS011;42435;53.292;6.000;2023-04-01T19:41:54;14.85;;;5.80;;
56537;SDS011;42435;53.292;6.000;2023-04-01T19:52:42;15.00;;;4.80;;
56537;SDS011;42435;53.292;6.000;2023-04-01T20:00:45;12.07;;;5.57;;
56537;SDS011;42435;53.292;6.000;2023-04-01T20:17:50;9.25;;;4.50;;
56537;SDS011;42435;53.292;6.000;2023-04-01T20:20:19;6.55;;;4.05;;
56537;SDS011;42435;53.292;6.000;2023-04-01T20:25:30;8.05;;;3.65;;
56537;SDS011;42435;53.292;6.000;2023-04-01T20:48:10;10.68;;;4.38;;
56537;SDS011;42435;53.292;6.000;2023-04-01T20:50:28;10.63;;;3.80;;
56537;SDS011;42435;53.292;6.000;2023-04-01T21:02:11;7.55;;;3.72;;
56537;SDS011;42435;53.292;6.000;2023-04-01T21:07:41;10.05;;;3.95;;
56537;SDS011;42435;53.292;6.000;2023-04-01T21:16:27;9.52;;;4.47;;
56537;SDS011;42435;53.292;6.000;2023-04-01T21:21:46;12.13;;;5.78;;
56537;SDS011;42435;53.292;6.000;2023-04-01T21:30:19;11.30;;;5.57;;
56537;SDS011;42435;53.292;6.000;2023-04-01T21:32:58;10.57;;;4.05;;
56537;SDS011;42435;53.292;6.000;2023-04-01T21:41:46;11.43;;;4.97;;
56537;SDS011;42435;53.292;6.000;2023-04-01T21:55:28;7.95;;;3.28;;
56537;SDS011;42435;53.292;6.000;2023-04-01T22:01:07;10.02;;;4.75;;
56537;SDS011;42435;53.292;6.000;2023-04-01T22:11:46;9.25;;;3.50;;
56537;SDS011;42435;53.292;6.000;2023-04-01T22:17:33;7.00;;;2.67;;
56537;SDS011;42435;53.292;6.000;2023-04-01T22:25:45;8.70;;;3.20;;
56537;SDS011;42435;53.292;6.000;2023-04-01T22:28:24;9.15;;;3.72;;
56537;SDS011;42435;53.292;6.000;2023-04-01T22:31:00;5.38;;;3.45;;
56537;SDS011;42435;53.292;6.000;2023-04-01T22:39:23;7.68;;;3.13;;
56537;SDS011;42435;53.292;6.000;2023-04-01T22:50:53;10.48;;;3.25;;
56537;SDS011;42435;53.292;6.000;2023-04-01T22:53:31;9.10;;;3.08;;
56537;SDS011;42435;53.292;6.000;2023-04-01T22:56:07;7.10;;;3.00;;
56537;SDS011;42435;53.292;6.000;2023-04-01T22:58:46;9.80;;;2.95;;
56537;SDS011;42435;53.292;6.000;2023-04-01T23:01:34;8.05;;;3.38;;
56537;SDS011;42435;53.292;6.000;2023-04-01T23:04:07;10.98;;;3.20;;
56537;SDS011;42435;53.292;6.000;2023-04-01T23:06:41;7.63;;;2.95;;
56537;SDS011;42435;53.292;6.000;2023-04-01T23:09:26;9.50;;;3.40;;
56537;SDS011;42435;53.292;6.000;2023-04-01T23:17:25;9.93;;;3.05;;
56537;SDS011;42435;53.292;6.000;2023-04-01T23:20:25;13.32;;;4.43;;
56537;SDS011;42435;53.292;6.000;2023-04-01T23:25:44;11.02;;;2.80;;
56537;SDS011;42435;53.292;6.000;2023-04-01T23:31:01;9.45;;;3.63;;
56537;SDS011;42435;53.292;6.000;2023-04-01T23:33:28;5.93;;;2.90;;
56537;SDS011;42435;53.292;6.000;2023-04-01T23:35:57;11.45;;;3.88;;
56537;SDS011;42435;53.292;6.000;2023-04-01T23:38:36;10.13;;;3.70;;
56537;SDS011;42435;53.292;6.000;2023-04-01T23:41:06;11.93;;;3.95;;
56537;SDS011;42435;53.292;6.000;2023-04-01T23:43:42;16.05;;;4.45;;
56537;SDS011;42435;53.292;6.000;2023-04-01T23:46:10;9.80;;;3.65;;
56537;SDS011;42435;53.292;6.000;2023-04-01T23:48:41;7.55;;;3.10;;
56537;SDS011;42435;53.292;6.000;2023-04-01T23:51:13;8.73;;;3.40;;
56537;SDS011;42435;53.292;6.000;2023-04-01T23:53:57;8.43;;;3.58;;
56537;SDS011;42435;53.292;6.000;2023-04-01T23:56:34;7.43;;;3.10;;
56537;SDS011;42435;53.292;6.000;2023-04-01T23:59:03;8.38;;;2.75;;
